BRU weather

Brussels Airport
Brussels, Brussels-Capital Region, Belgium

Public forecast

Using degrees Celsius for public forecast. Weather courtesy of forecast.io.

METAR (pilot weather report)

Retrieved 2018/06/22 22:20 UTC (0 seconds ago):

EBBR 222220Z 32005KT 9999 FEW024 10/07 Q1029 NOSIG

TAF (pilot weather forecast)

Retrieved 2018/06/22 18:27 UTC (4 hours ago):

TAF TAF EBBR 221710Z 2218/2324 33009KT 9999 SCT030 BKN045